• Join FlightAware (Why Join?)
  • Login
  • US Flag 
02:32AM EST


 

Airport Tracker/Info


-or-


 

Live Flight TrackerFlight Track Log ✈ SWA1017 ✈ 25-Apr-2013 ✈ KHRL - KAUS

Flight Track Log - Related Links

Times and Time Zones

All times are in EDT time to prevent confusion due to time zone crossing. See the SWA1017 flight status page for this flight to view local times or setup timezone preferences in your user account.

Time Position Orientation Groundspeed Altitude Reporting Facility
EDT Latitude Longitude Course Direction KTS MPH feet Rate Location/Type
03:00PM 26.2375 -97.6589 North 155 178 500  Level Houston Center
03:01PM 26.2792 -97.6556 North 157 181 2,400 1,740 Climbing Houston Center
03:02PM 26.3442 -97.6450 North 228 262 4,000 1,980 Climbing Houston Center
03:03PM 26.4225 -97.6364 North 302 348 6,500 3,240 Climbing Houston Center
03:03PM 26.5033 -97.6256 North 323 372 10,200 3,060 Climbing Houston Center
03:05PM 26.6131 -97.6094 North 350 403 13,100 3,000 Climbing Houston Center
03:06PM 26.7211 -97.5958 North 365 420 17,000 3,000 Climbing Houston Center
03:07PM 26.8242 -97.5831 North 375 432 19,400 2,520 Climbing Houston Center
03:08PM 26.9422 -97.5694 North 395 455 22,300 2,220 Climbing Houston Center
03:09PM 27.0564 -97.5544 North 408 470 24,100 1,740 Climbing Houston Center
03:11PM 27.2742 -97.6456 340° North 424 488 27,900 2,160 Climbing Houston Center
03:12PM 27.3764 -97.7097 331° Northwest 425 489 30,800 1,920 Climbing Houston Center
03:13PM 27.4714 -97.7803 327° Northwest 414 476 31,900 480 Climbing Houston Center
03:14PM 27.5869 -97.8650 327° Northwest 414 476 31,900  Level Houston Center
03:15PM 27.6808 -97.9389 325° Northwest 414 476 32,000  Climbing Houston Center
03:16PM 27.7697 -98.0189 321° Northwest 413 475 32,000 -60 Level Houston Center
03:17PM 27.8847 -98.0514 346° North 432 497 31,900  Descending Houston Center
03:18PM 28.0014 -98.0769 349° North 429 494 32,000  Climbing Houston Center
03:19PM 28.1400 -98.1097 348° North 426 490 32,000  Level Houston Center
03:20PM 28.2561 -98.1356 349° North 426 490 32,000  Level Houston Center
03:21PM 28.3708 -98.1633 348° North 423 487 32,000  Level Houston Center
03:22PM 28.4847 -98.1892 349° North 424 488 32,000  Level Houston Center
03:23PM 28.6003 -98.2161 348° North 423 487 32,000  Level Houston Center
03:24PM 28.7450 -98.2506 348° North 426 490 32,000  Level Houston Center
03:25PM 28.8603 -98.2769 349° North 422 486 32,000  Level Houston Center
03:26PM 28.9767 -98.3047 348° North 425 489 32,000 -60 Level Houston Center
03:27PM 29.1006 -98.3336 348° North 423 487 31,900 -1,380 Descending Houston Center
03:29PM 29.2150 -98.3608 348° North 420 483 29,200 -2,580 Descending Houston Center
03:30PM 29.3389 -98.3892 349° North 421 484 26,600 -2,040 Descending Houston Center
03:31PM 29.4500 -98.4150 349° North 411 473 25,100 -1,260 Descending Houston Center
03:32PM 29.5633 -98.4419 348° North 408 470 24,000 -1,080 Descending Houston Center
03:33PM 29.6819 -98.4350 North 403 464 22,900 -1,200 Descending Houston Center
03:34PM 29.7756 -98.3672 32° Northeast 396 456 21,600 -1,620 Descending Houston Center
03:35PM 29.8664 -98.3017 32° Northeast 385 443 19,600 -1,800 Descending Houston Center
03:36PM 29.9594 -98.2350 32° Northeast 368 423 17,900 -1,980 Descending Houston Center
03:37PM 30.0439 -98.1733 32° Northeast 361 415 15,600 -1,920 Descending Houston Center
03:38PM 30.1253 -98.0967 39° Northeast 355 409 14,000 -840 Descending Houston Center
03:39PM 30.1694 -97.9964 63° Northeast 350 403 13,900 -540 Descending Houston Center
03:40PM 30.2150 -97.8978 62° Northeast 319 367 12,900 -1,440 Descending Houston Center
03:41PM 30.2264 -97.8119 81° East 319 367 11,000 -2,340 Descending Houston Center
03:42PM 30.1467 -97.7758 159° South 279 321 8,100 -3,180 Descending Houston Center
03:43PM 30.0742 -97.7667 174° South 261 300 4,500 -2,460 Descending Houston Center
03:44PM 30.0286 -97.7353 149° Southeast 228 262 3,000 -900 Descending Houston Center
03:46PM 30.1757 -97.6773 19° North  Level Estimated
03:46PM 30.1144 -97.6789 19° North 189 217 1,800  Level Houston Center
03:47PM 30.1500 -97.6722 North 162 186 1,200 -600 Descending Houston Center
03:49PM 30.1945 -97.6699 North  Level Estimated
03:56PM 30.1945 -97.6699 157° South  Level Estimated